Time;durP1;ratioP1;P1;durP2;ratioP2;P2;SDS_P1;SDS_P2;PMS_P1;PMS_P2;Temp;Humidity;BMP_temperature;BMP_pressure;BME280_temperature;BME280_humidity;BME280_pressure;Samples;Min_cycle;Max_cycle;Signal;HPM_P1;HPM_P2
2022/10/20 00:00:46;;;;;;;8.48;4.60;;;;;;;;;;5058016;28;20421;-82
2022/10/20 00:03:12;;;;;;;6.57;4.60;;;;;;;;;;5060617;28;20404;-81
2022/10/20 00:05:38;;;;;;;8.02;4.18;;;;;;;;;;5058656;28;20413;-81
2022/10/20 00:08:06;;;;;;;6.75;5.03;;;;;;;;;;5058890;28;20420;-81
2022/10/20 00:10:34;;;;;;;7.57;4.75;;;;;;;;;;5057834;28;20443;-81
2022/10/20 00:13:00;;;;;;;11.52;4.90;;;;;;;;;;5060478;28;20412;-81
2022/10/20 00:15:26;;;;;;;8.77;4.70;;;;;;;;;;5055638;28;20431;-81
2022/10/20 00:17:53;;;;;;;7.97;4.60;;;;;;;;;;5056864;28;20438;-81
2022/10/20 00:20:19;;;;;;;9.02;5.30;;;;;;;;;;5058605;28;20797;-81
2022/10/20 00:22:45;;;;;;;7.95;4.93;;;;;;;;;;5057056;28;20419;-81
2022/10/20 00:25:12;;;;;;;7.10;5.20;;;;;;;;;;5058075;28;20464;-80
2022/10/20 00:27:40;;;;;;;8.55;5.38;;;;;;;;;;5056049;28;20418;-81
2022/10/20 00:30:07;;;;;;;6.20;4.38;;;;;;;;;;5059250;28;20431;-81
2022/10/20 00:32:33;;;;;;;9.43;5.35;;;;;;;;;;5056287;28;20425;-81
2022/10/20 00:34:59;;;;;;;7.90;4.60;;;;;;;;;;5057830;28;20433;-80
2022/10/20 00:37:26;;;;;;;7.35;5.18;;;;;;;;;;5058960;28;20432;-81
2022/10/20 00:39:54;;;;;;;9.00;5.30;;;;;;;;;;5059654;28;20436;-80
2022/10/20 00:42:21;;;;;;;8.50;5.20;;;;;;;;;;5056857;28;20413;-81
2022/10/20 00:44:50;;;;;;;9.98;5.07;;;;;;;;;;5059103;28;20419;-81
2022/10/20 00:47:19;;;;;;;8.90;5.10;;;;;;;;;;5057733;28;20422;-81
2022/10/20 00:49:46;;;;;;;11.38;4.93;;;;;;;;;;5056093;28;20565;-80
2022/10/20 00:52:12;;;;;;;7.90;4.88;;;;;;;;;;5057737;28;20406;-81
2022/10/20 00:54:39;;;;;;;9.60;5.03;;;;;;;;;;5058156;28;20409;-81
2022/10/20 00:57:06;;;;;;;9.63;5.00;;;;;;;;;;5057797;28;20412;-81
2022/10/20 00:59:34;;;;;;;8.27;4.90;;;;;;;;;;5060181;28;20443;-81
2022/10/20 01:02:04;;;;;;;8.18;5.18;;;;;;;;;;5058287;28;20420;-81
2022/10/20 01:04:31;;;;;;;9.70;5.20;;;;;;;;;;5060263;28;20420;-81
2022/10/20 01:06:58;;;;;;;8.18;5.13;;;;;;;;;;5054778;28;20419;-80
2022/10/20 01:09:25;;;;;;;7.28;4.57;;;;;;;;;;5050141;28;20429;-80
2022/10/20 01:11:59;;;;;;;7.73;4.60;;;;;;;;;;5054505;28;21166;-82
2022/10/20 01:14:32;;;;;;;8.30;4.77;;;;;;;;;;5054558;28;20967;-81
2022/10/20 01:17:04;;;;;;;7.90;4.97;;;;;;;;;;5051938;28;20444;-80
2022/10/20 01:19:47;;;;;;;8.90;5.38;;;;;;;;;;5051391;28;20427;-81
2022/10/20 01:22:21;;;;;;;6.25;4.53;;;;;;;;;;5057719;28;20419;-81
2022/10/20 01:24:52;;;;;;;7.57;4.32;;;;;;;;;;5054256;28;20813;-81
2022/10/20 01:27:33;;;;;;;5.93;4.40;;;;;;;;;;5057475;28;20410;-81
2022/10/20 01:30:05;;;;;;;13.90;4.97;;;;;;;;;;5054287;28;20423;-81
2022/10/20 01:32:35;;;;;;;9.87;6.10;;;;;;;;;;5056788;28;20423;-81
2022/10/20 01:35:04;;;;;;;7.87;4.40;;;;;;;;;;5056796;28;20500;-81
2022/10/20 01:37:33;;;;;;;11.88;4.65;;;;;;;;;;5057700;28;20429;-81
2022/10/20 01:40:01;;;;;;;7.72;4.85;;;;;;;;;;5054914;28;20437;-80
2022/10/20 01:42:28;;;;;;;8.70;4.20;;;;;;;;;;5059214;28;20417;-81
2022/10/20 01:44:56;;;;;;;8.60;4.80;;;;;;;;;;5059055;28;20446;-81
2022/10/20 01:47:25;;;;;;;9.50;4.70;;;;;;;;;;5057547;28;20423;-80
2022/10/20 01:49:52;;;;;;;9.05;4.30;;;;;;;;;;5060119;28;20411;-80
2022/10/20 01:52:19;;;;;;;10.70;4.78;;;;;;;;;;5055726;28;20439;-81
2022/10/20 01:54:46;;;;;;;9.00;4.73;;;;;;;;;;5055842;28;20425;-80
2022/10/20 01:57:19;;;;;;;7.70;4.40;;;;;;;;;;5058665;28;20419;-81
2022/10/20 01:59:53;;;;;;;10.32;4.70;;;;;;;;;;5058712;28;20431;-81
2022/10/20 02:02:28;;;;;;;8.43;4.27;;;;;;;;;;5056601;28;20421;-80
2022/10/20 02:05:01;;;;;;;9.65;4.47;;;;;;;;;;5058071;28;20438;-80
2022/10/20 02:07:29;;;;;;;8.90;4.50;;;;;;;;;;5060380;28;20409;-81
2022/10/20 02:09:59;;;;;;;5.93;4.30;;;;;;;;;;5061230;28;20828;-80
2022/10/20 02:12:28;;;;;;;7.38;4.32;;;;;;;;;;5061142;28;20420;-80
2022/10/20 02:14:55;;;;;;;7.40;4.65;;;;;;;;;;5061514;28;20433;-80
2022/10/20 02:17:21;;;;;;;7.03;4.72;;;;;;;;;;5062255;28;20417;-81
2022/10/20 02:19:51;;;;;;;10.00;4.40;;;;;;;;;;5059403;28;20431;-81
2022/10/20 02:22:19;;;;;;;7.37;4.50;;;;;;;;;;5061193;28;20554;-81
2022/10/20 02:24:47;;;;;;;6.80;4.30;;;;;;;;;;5063079;28;20427;-81
2022/10/20 02:27:15;;;;;;;5.68;3.83;;;;;;;;;;5059210;28;20430;-80
2022/10/20 02:29:44;;;;;;;8.50;4.43;;;;;;;;;;5060820;28;20825;-80
2022/10/20 02:32:11;;;;;;;9.73;4.38;;;;;;;;;;5060142;28;20404;-80
2022/10/20 02:34:38;;;;;;;7.33;4.70;;;;;;;;;;5062425;28;20530;-80
2022/10/20 02:37:05;;;;;;;5.70;4.35;;;;;;;;;;5058801;28;20404;-80
2022/10/20 02:39:32;;;;;;;8.70;4.13;;;;;;;;;;5061158;28;20846;-80
2022/10/20 02:41:58;;;;;;;9.90;4.32;;;;;;;;;;5059480;28;20417;-81
2022/10/20 02:44:24;;;;;;;5.57;4.50;;;;;;;;;;5057954;28;20447;-81
2022/10/20 02:46:51;;;;;;;7.35;3.83;;;;;;;;;;5043916;28;20964;-80
2022/10/20 02:49:18;;;;;;;6.95;3.95;;;;;;;;;;5058683;28;20959;-80
2022/10/20 02:51:44;;;;;;;6.68;4.45;;;;;;;;;;5061405;28;21041;-81
2022/10/20 02:54:12;;;;;;;6.15;4.30;;;;;;;;;;5062209;28;20433;-80
2022/10/20 02:56:38;;;;;;;7.10;4.40;;;;;;;;;;5062455;28;20916;-80
2022/10/20 02:59:04;;;;;;;6.93;3.70;;;;;;;;;;5057484;28;20424;-80
2022/10/20 03:01:31;;;;;;;9.65;4.22;;;;;;;;;;5062367;28;20428;-80
2022/10/20 03:03:58;;;;;;;5.63;4.00;;;;;;;;;;5043373;28;20920;-80
2022/10/20 03:06:25;;;;;;;7.10;3.80;;;;;;;;;;5062573;28;20421;-80
2022/10/20 03:08:51;;;;;;;7.27;4.13;;;;;;;;;;5058428;28;20429;-81
2022/10/20 03:11:19;;;;;;;8.77;4.40;;;;;;;;;;5060709;28;20434;-80
2022/10/20 03:13:45;;;;;;;7.95;4.43;;;;;;;;;;5061749;28;20409;-80
2022/10/20 03:16:15;;;;;;;9.77;4.50;;;;;;;;;;5063081;28;20450;-80
2022/10/20 03:18:41;;;;;;;7.45;4.07;;;;;;;;;;5059772;28;20947;-80
2022/10/20 03:21:08;;;;;;;7.05;4.18;;;;;;;;;;5059504;28;20429;-80
2022/10/20 03:23:34;;;;;;;5.68;4.53;;;;;;;;;;5059661;28;20778;-80
2022/10/20 03:26:01;;;;;;;5.97;4.27;;;;;;;;;;5062742;28;20418;-80
2022/10/20 03:28:29;;;;;;;8.65;4.53;;;;;;;;;;5061749;28;20411;-80
2022/10/20 03:30:55;;;;;;;8.60;4.45;;;;;;;;;;5058308;28;20440;-80
2022/10/20 03:33:25;;;;;;;7.85;4.60;;;;;;;;;;5060283;28;20416;-80
2022/10/20 03:35:51;;;;;;;7.88;6.15;;;;;;;;;;5059101;28;20433;-80
2022/10/20 03:38:18;;;;;;;5.30;4.40;;;;;;;;;;5057266;28;20433;-80
2022/10/20 03:40:44;;;;;;;8.02;5.57;;;;;;;;;;5063432;28;20431;-81
2022/10/20 03:43:10;;;;;;;8.33;4.90;;;;;;;;;;5059412;28;20421;-80
2022/10/20 03:45:38;;;;;;;7.40;4.50;;;;;;;;;;5060154;28;20457;-80
2022/10/20 03:48:05;;;;;;;6.65;4.80;;;;;;;;;;5058658;28;20430;-80
2022/10/20 03:50:31;;;;;;;7.75;5.05;;;;;;;;;;5056895;28;20425;-81
2022/10/20 03:52:58;;;;;;;7.75;4.63;;;;;;;;;;5053615;28;20789;-80
2022/10/20 03:55:24;;;;;;;8.43;5.65;;;;;;;;;;5057586;28;20431;-80
2022/10/20 03:57:50;;;;;;;9.65;5.60;;;;;;;;;;5061530;28;20418;-81
2022/10/20 04:00:17;;;;;;;7.90;5.20;;;;;;;;;;5058004;28;20439;-80
2022/10/20 04:02:45;;;;;;;8.43;4.90;;;;;;;;;;5062401;28;20415;-80
2022/10/20 04:05:13;;;;;;;10.45;4.80;;;;;;;;;;5059890;28;20411;-80
2022/10/20 04:07:39;;;;;;;7.57;5.47;;;;;;;;;;5056876;28;20957;-80
2022/10/20 04:10:06;;;;;;;8.23;5.28;;;;;;;;;;5054202;28;20431;-80
2022/10/20 04:12:33;;;;;;;8.10;4.78;;;;;;;;;;5055641;28;20795;-80
2022/10/20 04:14:59;;;;;;;8.88;5.05;;;;;;;;;;5057514;28;20460;-80
2022/10/20 04:17:25;;;;;;;7.40;4.60;;;;;;;;;;5056148;28;20411;-80
2022/10/20 04:19:53;;;;;;;8.10;4.80;;;;;;;;;;5058604;28;20471;-80
2022/10/20 04:22:19;;;;;;;6.78;4.88;;;;;;;;;;5057556;28;20412;-80
2022/10/20 04:24:46;;;;;;;7.80;5.10;;;;;;;;;;5059391;28;20426;-80
2022/10/20 04:27:12;;;;;;;7.00;4.35;;;;;;;;;;5042728;28;20902;-80
2022/10/20 04:29:38;;;;;;;10.75;5.25;;;;;;;;;;5055787;28;20436;-80
2022/10/20 04:32:05;;;;;;;9.88;5.90;;;;;;;;;;5059143;28;20408;-81
2022/10/20 04:34:31;;;;;;;12.20;6.20;;;;;;;;;;5058272;28;20420;-80
2022/10/20 04:36:59;;;;;;;7.10;5.70;;;;;;;;;;5056920;28;20423;-80
2022/10/20 04:39:26;;;;;;;7.63;5.20;;;;;;;;;;5056322;28;20429;-80
2022/10/20 04:41:52;;;;;;;10.35;5.60;;;;;;;;;;5054796;28;20436;-81
2022/10/20 04:44:18;;;;;;;7.47;5.18;;;;;;;;;;5056771;28;20431;-80
2022/10/20 04:46:45;;;;;;;7.13;5.40;;;;;;;;;;5056850;28;20434;-80
2022/10/20 04:49:11;;;;;;;8.90;5.13;;;;;;;;;;5057903;28;20420;-80
2022/10/20 04:51:39;;;;;;;7.50;5.47;;;;;;;;;;5059186;28;20427;-80
2022/10/20 04:54:07;;;;;;;9.82;5.45;;;;;;;;;;5060863;28;20419;-80
2022/10/20 04:56:33;;;;;;;8.48;5.22;;;;;;;;;;5059361;28;20416;-80
2022/10/20 04:59:01;;;;;;;7.75;5.00;;;;;;;;;;5058553;28;20902;-80
2022/10/20 05:01:30;;;;;;;7.60;5.78;;;;;;;;;;5055712;28;20425;-80
2022/10/20 05:03:56;;;;;;;7.18;5.10;;;;;;;;;;5058274;28;20805;-80
2022/10/20 05:06:23;;;;;;;6.72;4.80;;;;;;;;;;5056305;28;20432;-80
2022/10/20 05:08:51;;;;;;;6.30;5.10;;;;;;;;;;5055890;28;20419;-80
2022/10/20 05:11:19;;;;;;;7.10;5.00;;;;;;;;;;5058741;28;20433;-80
2022/10/20 05:13:46;;;;;;;6.45;5.00;;;;;;;;;;5056650;28;20432;-80
2022/10/20 05:16:12;;;;;;;9.45;5.60;;;;;;;;;;5051212;28;20436;-81
2022/10/20 05:18:39;;;;;;;6.63;4.88;;;;;;;;;;5054313;28;20791;-80
2022/10/20 05:21:06;;;;;;;7.07;5.30;;;;;;;;;;5059068;28;20517;-80
2022/10/20 05:23:32;;;;;;;6.55;5.25;;;;;;;;;;5051400;28;20421;-80
2022/10/20 05:26:01;;;;;;;9.30;5.00;;;;;;;;;;5058422;28;20920;-80
2022/10/20 05:28:29;;;;;;;6.45;4.90;;;;;;;;;;5053505;28;20420;-80
2022/10/20 05:30:55;;;;;;;6.38;5.20;;;;;;;;;;5051214;28;20435;-80
2022/10/20 05:33:22;;;;;;;5.97;5.00;;;;;;;;;;5039557;28;20943;-80
2022/10/20 05:35:48;;;;;;;9.45;5.63;;;;;;;;;;5060168;28;20427;-80
2022/10/20 05:38:14;;;;;;;7.32;5.88;;;;;;;;;;5063819;28;20415;-80
2022/10/20 05:40:44;;;;;;;8.07;4.93;;;;;;;;;;5057716;28;20988;-80
2022/10/20 05:43:11;;;;;;;9.60;5.93;;;;;;;;;;5059115;28;20417;-80
2022/10/20 05:45:39;;;;;;;6.00;5.35;;;;;;;;;;5061926;28;20433;-80
2022/10/20 05:48:05;;;;;;;7.28;5.03;;;;;;;;;;5062664;28;20427;-80
2022/10/20 05:50:31;;;;;;;12.07;8.13;;;;;;;;;;5058592;28;20912;-80
2022/10/20 05:52:58;;;;;;;7.28;5.50;;;;;;;;;;5060230;28;20942;-80
2022/10/20 05:55:24;;;;;;;10.98;6.35;;;;;;;;;;5060897;28;20438;-80
2022/10/20 05:57:51;;;;;;;12.20;6.50;;;;;;;;;;5060930;28;20417;-80
2022/10/20 06:00:28;;;;;;;8.65;6.03;;;;;;;;;;5060463;28;20416;-80
2022/10/20 06:02:56;;;;;;;9.20;5.60;;;;;;;;;;5057248;28;20418;-80
2022/10/20 06:05:22;;;;;;;5.95;5.35;;;;;;;;;;5060215;28;20417;-80
2022/10/20 06:07:49;;;;;;;7.55;5.68;;;;;;;;;;5058829;28;20926;-80
2022/10/20 06:10:15;;;;;;;8.60;4.68;;;;;;;;;;5059842;28;20440;-80
2022/10/20 06:12:41;;;;;;;10.60;5.97;;;;;;;;;;5060702;28;20430;-80
2022/10/20 06:15:09;;;;;;;6.20;5.00;;;;;;;;;;5061514;28;20423;-80
2022/10/20 06:17:35;;;;;;;7.13;5.00;;;;;;;;;;5039641;28;20419;-80
2022/10/20 06:20:03;;;;;;;10.35;5.45;;;;;;;;;;5057722;28;20478;-80
2022/10/20 06:22:29;;;;;;;10.95;5.13;;;;;;;;;;5062209;28;20422;-80
2022/10/20 06:24:56;;;;;;;10.07;5.45;;;;;;;;;;5059397;28;20427;-80
2022/10/20 06:27:22;;;;;;;9.25;4.88;;;;;;;;;;5060041;28;20422;-80
2022/10/20 06:29:49;;;;;;;7.78;5.10;;;;;;;;;;5059568;28;20436;-80
2022/10/20 06:32:17;;;;;;;6.05;5.28;;;;;;;;;;5057469;28;20424;-80
2022/10/20 06:34:43;;;;;;;8.50;5.15;;;;;;;;;;5059577;28;20955;-80
2022/10/20 06:37:11;;;;;;;5.47;4.67;;;;;;;;;;5058953;28;20429;-80
2022/10/20 06:39:37;;;;;;;5.82;4.80;;;;;;;;;;5052728;28;20431;-80
2022/10/20 06:42:04;;;;;;;7.82;4.80;;;;;;;;;;5055776;28;20894;-80
2022/10/20 06:44:30;;;;;;;10.02;5.10;;;;;;;;;;5058099;28;20483;-80
2022/10/20 06:46:57;;;;;;;6.80;4.97;;;;;;;;;;5057628;28;20937;-80
2022/10/20 06:49:23;;;;;;;7.10;4.68;;;;;;;;;;5061460;28;20431;-80
2022/10/20 06:51:49;;;;;;;8.70;5.20;;;;;;;;;;5058610;28;20456;-80
2022/10/20 06:54:17;;;;;;;8.85;5.53;;;;;;;;;;5060677;28;20431;-81
2022/10/20 06:56:44;;;;;;;7.70;5.20;;;;;;;;;;5055477;28;20435;-82
2022/10/20 06:59:10;;;;;;;8.63;5.32;;;;;;;;;;5057387;28;20428;-81
2022/10/20 07:01:38;;;;;;;7.38;5.13;;;;;;;;;;5056180;28;20431;-80
2022/10/20 07:04:05;;;;;;;8.10;4.97;;;;;;;;;;5060635;28;20854;-82
2022/10/20 07:06:32;;;;;;;7.80;5.40;;;;;;;;;;5064096;28;20451;-80
2022/10/20 07:08:59;;;;;;;5.30;4.45;;;;;;;;;;5061397;28;20427;-80
2022/10/20 07:11:28;;;;;;;5.70;4.72;;;;;;;;;;5062921;28;20795;-81
2022/10/20 07:13:54;;;;;;;7.72;4.60;;;;;;;;;;5062247;28;20424;-79
2022/10/20 07:16:22;;;;;;;9.20;5.30;;;;;;;;;;5062952;28;20434;-79
2022/10/20 07:18:48;;;;;;;7.15;4.88;;;;;;;;;;5062209;28;20417;-80
2022/10/20 07:21:16;;;;;;;6.15;4.80;;;;;;;;;;5060949;28;20421;-79
2022/10/20 07:23:44;;;;;;;8.30;5.00;;;;;;;;;;5062643;28;20525;-79
2022/10/20 07:26:12;;;;;;;6.50;4.43;;;;;;;;;;5062185;28;20415;-80
2022/10/20 07:28:42;;;;;;;11.52;5.43;;;;;;;;;;5060142;28;20425;-82
2022/10/20 07:31:09;;;;;;;6.73;4.60;;;;;;;;;;5060611;28;20429;-79
2022/10/20 07:33:37;;;;;;;6.30;4.70;;;;;;;;;;5060298;28;20417;-81
2022/10/20 07:36:10;;;;;;;7.38;4.55;;;;;;;;;;5065321;28;20414;-82
2022/10/20 07:38:37;;;;;;;7.10;5.30;;;;;;;;;;5060469;28;20436;-81
2022/10/20 07:41:03;;;;;;;7.83;5.23;;;;;;;;;;5064293;28;20429;-81
2022/10/20 07:43:30;;;;;;;9.90;5.13;;;;;;;;;;5060312;28;20409;-81
2022/10/20 07:45:57;;;;;;;7.05;5.15;;;;;;;;;;5062630;28;20900;-81
2022/10/20 07:48:24;;;;;;;9.57;5.72;;;;;;;;;;5059989;28;20425;-81
2022/10/20 07:50:50;;;;;;;9.63;5.65;;;;;;;;;;5060459;28;20904;-80
2022/10/20 07:53:16;;;;;;;7.57;5.53;;;;;;;;;;5059508;28;20436;-81
2022/10/20 07:55:44;;;;;;;8.60;5.90;;;;;;;;;;5061459;28;20421;-82
2022/10/20 07:58:11;;;;;;;7.57;5.53;;;;;;;;;;5048201;28;20517;-81
2022/10/20 08:00:37;;;;;;;7.15;5.38;;;;;;;;;;5060869;28;20417;-81
2022/10/20 08:03:05;;;;;;;6.63;5.10;;;;;;;;;;5060577;28;20425;-81
2022/10/20 08:05:31;;;;;;;7.72;5.68;;;;;;;;;;5059540;28;20413;-81
2022/10/20 08:07:59;;;;;;;8.05;5.90;;;;;;;;;;5059420;28;20422;-79
2022/10/20 08:10:26;;;;;;;8.93;5.70;;;;;;;;;;5060051;28;20900;-81
2022/10/20 08:12:52;;;;;;;8.05;5.75;;;;;;;;;;5060611;28;20424;-82
2022/10/20 08:15:21;;;;;;;6.60;5.90;;;;;;;;;;5059544;28;20425;-79
2022/10/20 08:17:47;;;;;;;10.00;6.55;;;;;;;;;;5061995;28;20940;-81
2022/10/20 08:20:15;;;;;;;10.57;6.37;;;;;;;;;;5060752;28;20505;-79
2022/10/20 08:22:42;;;;;;;8.40;6.10;;;;;;;;;;5060561;28;20415;-79
2022/10/20 08:25:10;;;;;;;10.00;5.70;;;;;;;;;;5060049;28;20412;-80
2022/10/20 08:27:38;;;;;;;8.45;6.43;;;;;;;;;;5058926;28;20423;-80
2022/10/20 08:30:04;;;;;;;11.90;6.65;;;;;;;;;;5060374;28;20431;-81
2022/10/20 08:32:31;;;;;;;10.18;6.22;;;;;;;;;;5059848;28;20799;-80
2022/10/20 08:34:57;;;;;;;8.18;6.47;;;;;;;;;;5060106;28;20908;-82
2022/10/20 08:37:25;;;;;;;8.25;6.28;;;;;;;;;;5056059;28;20418;-81
2022/10/20 08:39:51;;;;;;;8.30;6.30;;;;;;;;;;5060816;28;20941;-81
2022/10/20 08:42:18;;;;;;;8.10;6.20;;;;;;;;;;5058094;28;20422;-82
2022/10/20 08:44:45;;;;;;;8.27;6.50;;;;;;;;;;5061231;28;20414;-81
2022/10/20 08:47:19;;;;;;;7.80;6.23;;;;;;;;;;5056988;28;20780;-81
2022/10/20 08:49:46;;;;;;;8.18;6.63;;;;;;;;;;5042348;28;20425;-81
2022/10/20 08:52:15;;;;;;;10.55;6.30;;;;;;;;;;5060604;28;20473;-81
2022/10/20 08:54:42;;;;;;;8.60;6.45;;;;;;;;;;5060153;28;20439;-81
2022/10/20 08:57:18;;;;;;;8.57;6.30;;;;;;;;;;5060301;28;20763;-81
2022/10/20 08:59:45;;;;;;;9.75;6.65;;;;;;;;;;5042591;28;20862;-81
2022/10/20 09:02:18;;;;;;;7.85;6.22;;;;;;;;;;5057153;28;20410;-81
2022/10/20 09:04:47;;;;;;;9.45;6.60;;;;;;;;;;5061008;28;20415;-81
2022/10/20 09:07:17;;;;;;;8.73;6.55;;;;;;;;;;5056942;28;20433;-80
2022/10/20 09:09:46;;;;;;;10.07;7.10;;;;;;;;;;5059121;28;20947;-81
2022/10/20 09:12:14;;;;;;;8.50;6.60;;;;;;;;;;5055458;28;20417;-81
2022/10/20 09:14:40;;;;;;;8.38;6.40;;;;;;;;;;5054688;28;20490;-78
2022/10/20 09:17:12;;;;;;;7.90;6.55;;;;;;;;;;5055554;28;20414;-79
2022/10/20 09:19:39;;;;;;;9.23;6.50;;;;;;;;;;5058148;28;20433;-79
2022/10/20 09:22:06;;;;;;;10.40;7.18;;;;;;;;;;5051513;28;20422;-79
2022/10/20 09:24:35;;;;;;;12.70;7.10;;;;;;;;;;5056231;28;20430;-79
2022/10/20 09:27:16;;;;;;;8.70;6.85;;;;;;;;;;5058019;28;20424;-79
2022/10/20 09:29:44;;;;;;;8.95;7.07;;;;;;;;;;5060645;28;20417;-80
2022/10/20 09:32:16;;;;;;;9.88;7.10;;;;;;;;;;5043401;28;20489;-81
2022/10/20 09:34:42;;;;;;;8.60;7.03;;;;;;;;;;5056109;28;20941;-79
2022/10/20 09:37:11;;;;;;;8.70;6.70;;;;;;;;;;5057691;28;20424;-79
2022/10/20 09:39:43;;;;;;;9.82;6.50;;;;;;;;;;5054852;28;20440;-82
2022/10/20 09:42:13;;;;;;;11.73;7.60;;;;;;;;;;5058723;28;20423;-79
2022/10/20 09:44:47;;;;;;;9.75;7.38;;;;;;;;;;5058679;28;20421;-82
2022/10/20 09:47:15;;;;;;;8.82;6.90;;;;;;;;;;5056893;28;20412;-79
2022/10/20 09:49:44;;;;;;;10.25;7.30;;;;;;;;;;5059062;28;20434;-80
2022/10/20 09:52:16;;;;;;;10.45;7.47;;;;;;;;;;5055805;28;20419;-80
2022/10/20 09:54:46;;;;;;;9.90;7.50;;;;;;;;;;5056446;28;20429;-81
2022/10/20 09:57:17;;;;;;;9.00;6.93;;;;;;;;;;5057828;28;20463;-80
2022/10/20 09:59:46;;;;;;;8.93;7.47;;;;;;;;;;5056746;28;20837;-81
2022/10/20 10:02:41;;;;;;;9.90;6.88;;;;;;;;;;5055566;28;20411;-79
2022/10/20 10:05:15;;;;;;;9.50;7.78;;;;;;;;;;5042557;28;20631;-82
2022/10/20 10:07:41;;;;;;;10.23;7.47;;;;;;;;;;5053672;28;20419;-82
2022/10/20 10:10:21;;;;;;;9.15;6.80;;;;;;;;;;5058528;28;20435;-81
2022/10/20 10:12:51;;;;;;;8.13;7.03;;;;;;;;;;5056054;28;20428;-82
2022/10/20 10:15:25;;;;;;;9.50;6.43;;;;;;;;;;5053245;28;20423;-82
2022/10/20 10:17:52;;;;;;;9.00;7.10;;;;;;;;;;5054844;28;20413;-81
2022/10/20 10:20:36;;;;;;;10.70;7.47;;;;;;;;;;5054025;28;20452;-82
2022/10/20 10:23:30;;;;;;;8.73;7.50;;;;;;;;;;5058687;28;20934;-81
2022/10/20 10:25:56;;;;;;;8.30;7.15;;;;;;;;;;5038377;28;20457;-81
2022/10/20 10:28:28;;;;;;;9.25;7.00;;;;;;;;;;5059532;28;20451;-81
2022/10/20 10:31:06;;;;;;;9.68;7.75;;;;;;;;;;5056001;28;20436;-81
2022/10/20 10:33:33;;;;;;;8.07;7.03;;;;;;;;;;5061552;28;20415;-81
2022/10/20 10:36:01;;;;;;;9.20;7.80;;;;;;;;;;5061305;28;20431;-81
2022/10/20 10:38:28;;;;;;;8.05;7.13;;;;;;;;;;5059116;28;20444;-81
2022/10/20 10:41:01;;;;;;;10.68;7.90;;;;;;;;;;5060720;28;20423;-81
2022/10/20 10:43:33;;;;;;;8.50;7.60;;;;;;;;;;5060256;28;20424;-81
2022/10/20 10:46:03;;;;;;;7.50;6.80;;;;;;;;;;5059304;28;20951;-81
2022/10/20 10:48:41;;;;;;;10.80;7.35;;;;;;;;;;5062450;28;20426;-81
2022/10/20 10:51:11;;;;;;;10.68;7.50;;;;;;;;;;5066743;28;20427;-81
2022/10/20 10:53:45;;;;;;;11.77;7.90;;;;;;;;;;5058629;28;20839;-79
2022/10/20 10:56:15;;;;;;;10.90;8.00;;;;;;;;;;5060972;28;20799;-81
2022/10/20 10:58:45;;;;;;;9.87;7.83;;;;;;;;;;5060691;28;20485;-81
2022/10/20 11:01:33;;;;;;;10.85;7.60;;;;;;;;;;5061430;28;20411;-80
2022/10/20 11:04:10;;;;;;;10.65;7.57;;;;;;;;;;5055730;28;20429;-82
2022/10/20 11:06:41;;;;;;;10.20;7.40;;;;;;;;;;5060315;28;20412;-81
2022/10/20 11:09:15;;;;;;;8.13;7.32;;;;;;;;;;5057653;28;20811;-81
2022/10/20 11:11:45;;;;;;;9.57;7.88;;;;;;;;;;5051630;28;20498;-80
2022/10/20 11:14:16;;;;;;;13.18;8.13;;;;;;;;;;5039400;28;20399;-80
2022/10/20 11:16:48;;;;;;;11.93;7.57;;;;;;;;;;5023481;28;20441;-81
2022/10/20 11:19:28;;;;;;;12.07;8.00;;;;;;;;;;5033700;28;20611;-80
2022/10/20 11:22:01;;;;;;;9.40;7.53;;;;;;;;;;5041264;28;20422;-80
2022/10/20 11:24:33;;;;;;;9.13;7.80;;;;;;;;;;5041268;28;20896;-79
2022/10/20 11:27:03;;;;;;;9.05;8.15;;;;;;;;;;5038960;28;20415;-81
2022/10/20 11:29:32;;;;;;;10.05;7.88;;;;;;;;;;5040751;28;20812;-82
2022/10/20 11:32:05;;;;;;;10.63;7.57;;;;;;;;;;5039564;28;20444;-82
2022/10/20 11:34:36;;;;;;;8.07;7.28;;;;;;;;;;5041425;28;20446;-80
2022/10/20 11:37:06;;;;;;;8.52;7.35;;;;;;;;;;5038495;28;20438;-80
2022/10/20 11:39:35;;;;;;;11.90;7.93;;;;;;;;;;5040063;28;20438;-80
2022/10/20 11:42:10;;;;;;;12.27;8.60;;;;;;;;;;5040638;28;20446;-80
2022/10/20 11:44:40;;;;;;;8.52;7.63;;;;;;;;;;5042158;28;20783;-80
2022/10/20 11:47:08;;;;;;;11.48;8.10;;;;;;;;;;5042899;28;20422;-80
2022/10/20 11:49:38;;;;;;;12.25;7.65;;;;;;;;;;5040797;28;20413;-80
2022/10/20 11:52:11;;;;;;;11.18;7.90;;;;;;;;;;5038337;28;20462;-80
2022/10/20 11:54:54;;;;;;;13.25;7.20;;;;;;;;;;5039402;28;20432;-80
2022/10/20 11:57:28;;;;;;;11.00;8.60;;;;;;;;;;5038961;28;20423;-81
2022/10/20 12:00:10;;;;;;;9.07;7.50;;;;;;;;;;5039757;28;20423;-80
2022/10/20 12:02:53;;;;;;;11.50;7.78;;;;;;;;;;5042948;28;20429;-80
2022/10/20 12:05:29;;;;;;;11.32;7.90;;;;;;;;;;5039839;28;20469;-80
2022/10/20 12:08:23;;;;;;;10.13;7.35;;;;;;;;;;5038074;28;20787;-80
2022/10/20 12:10:54;;;;;;;9.40;7.20;;;;;;;;;;4994242;28;20434;-80
2022/10/20 12:13:26;;;;;;;10.47;8.10;;;;;;;;;;5037462;28;20427;-80
2022/10/20 12:15:53;;;;;;;8.57;7.68;;;;;;;;;;5039956;28;20431;-80
2022/10/20 12:18:25;;;;;;;10.10;8.20;;;;;;;;;;5025046;28;20928;-80
2022/10/20 12:20:55;;;;;;;10.98;8.77;;;;;;;;;;5037736;28;20421;-80
2022/10/20 12:23:40;;;;;;;10.82;7.72;;;;;;;;;;5040045;28;20424;-80
2022/10/20 12:26:21;;;;;;;8.02;7.00;;;;;;;;;;5040374;28;20411;-80
2022/10/20 12:28:48;;;;;;;9.50;7.70;;;;;;;;;;5040425;28;21117;-80
2022/10/20 12:31:14;;;;;;;10.65;7.20;;;;;;;;;;5041862;28;20752;-80
2022/10/20 12:33:59;;;;;;;10.07;7.80;;;;;;;;;;5039038;28;20427;-80
2022/10/20 12:36:28;;;;;;;9.90;7.20;;;;;;;;;;5037830;28;20461;-80
2022/10/20 12:39:09;;;;;;;11.43;8.45;;;;;;;;;;5038492;28;20424;-80
2022/10/20 12:41:38;;;;;;;10.57;7.65;;;;;;;;;;5026978;28;20879;-80
2022/10/20 12:44:06;;;;;;;9.77;7.93;;;;;;;;;;5039275;28;20421;-80
2022/10/20 12:46:33;;;;;;;9.73;7.80;;;;;;;;;;5037852;28;20437;-80
2022/10/20 12:49:01;;;;;;;10.05;7.47;;;;;;;;;;5041918;28;20935;-80
2022/10/20 12:51:33;;;;;;;9.73;7.45;;;;;;;;;;5038731;28;20419;-80
2022/10/20 12:54:02;;;;;;;10.48;7.30;;;;;;;;;;5040782;28;20431;-80
2022/10/20 12:56:33;;;;;;;9.65;8.20;;;;;;;;;;5040255;28;20442;-80
2022/10/20 12:59:23;;;;;;;11.37;8.37;;;;;;;;;;5039636;28;20434;-80
2022/10/20 13:02:20;;;;;;;8.77;7.88;;;;;;;;;;5018855;28;20433;-80
2022/10/20 13:04:53;;;;;;;11.73;7.47;;;;;;;;;;4944939;28;20560;-81
2022/10/20 13:07:35;;;;;;;14.18;8.15;;;;;;;;;;5019401;28;20439;-80
2022/10/20 13:10:22;;;;;;;9.30;7.10;;;;;;;;;;5034926;28;20991;-80
2022/10/20 13:12:49;;;;;;;10.10;6.80;;;;;;;;;;5038225;28;20430;-80
2022/10/20 13:15:17;;;;;;;10.10;6.93;;;;;;;;;;5032365;28;20430;-80
2022/10/20 13:17:51;;;;;;;9.02;7.03;;;;;;;;;;5035755;28;20430;-81
2022/10/20 13:20:24;;;;;;;8.50;7.60;;;;;;;;;;5042140;28;20902;-80
2022/10/20 13:22:51;;;;;;;10.23;7.47;;;;;;;;;;5038197;28;20961;-80
2022/10/20 13:25:33;;;;;;;9.50;7.20;;;;;;;;;;5038236;28;20433;-80
2022/10/20 13:28:05;;;;;;;10.20;7.28;;;;;;;;;;5039977;28;20934;-80
2022/10/20 13:30:33;;;;;;;9.55;7.55;;;;;;;;;;5039410;28;20926;-80
2022/10/20 13:33:03;;;;;;;9.52;7.32;;;;;;;;;;5042061;28;20993;-81
2022/10/20 13:35:33;;;;;;;12.45;8.13;;;;;;;;;;5036177;28;20924;-80
2022/10/20 13:38:04;;;;;;;8.67;7.57;;;;;;;;;;5036687;28;20432;-81
2022/10/20 13:40:37;;;;;;;9.75;7.75;;;;;;;;;;5037939;28;20430;-81
2022/10/20 13:43:11;;;;;;;8.35;7.47;;;;;;;;;;5032978;28;20456;-80
2022/10/20 13:45:55;;;;;;;8.75;6.90;;;;;;;;;;5037645;28;20435;-80
2022/10/20 13:48:30;;;;;;;9.80;7.07;;;;;;;;;;5033536;28;20506;-80
2022/10/20 13:50:58;;;;;;;8.73;7.10;;;;;;;;;;5036407;28;20438;-82
2022/10/20 13:53:26;;;;;;;9.80;7.70;;;;;;;;;;5036376;28;20858;-80
2022/10/20 13:55:55;;;;;;;9.65;7.70;;;;;;;;;;5042467;28;20425;-80
2022/10/20 13:58:24;;;;;;;13.35;8.23;;;;;;;;;;5040653;28;20431;-82
2022/10/20 14:00:55;;;;;;;13.10;7.90;;;;;;;;;;5035096;28;20444;-83
2022/10/20 14:03:23;;;;;;;11.23;7.10;;;;;;;;;;5041172;28;20421;-82
2022/10/20 14:05:49;;;;;;;10.55;7.68;;;;;;;;;;5043023;28;20425;-82
2022/10/20 14:08:16;;;;;;;9.13;7.28;;;;;;;;;;5044798;28;20425;-82
2022/10/20 14:10:44;;;;;;;11.90;7.57;;;;;;;;;;5039083;28;20422;-82
2022/10/20 14:13:13;;;;;;;10.35;7.70;;;;;;;;;;5041218;28;20427;-82
2022/10/20 14:15:45;;;;;;;8.18;7.38;;;;;;;;;;5040609;28;20449;-82
2022/10/20 14:18:20;;;;;;;12.13;7.70;;;;;;;;;;5039564;28;20427;-82
2022/10/20 14:20:53;;;;;;;8.88;7.57;;;;;;;;;;5042637;28;20429;-82
2022/10/20 14:23:20;;;;;;;11.57;8.65;;;;;;;;;;5038420;28;20433;-82
2022/10/20 14:25:48;;;;;;;10.52;7.97;;;;;;;;;;5039708;28;20482;-82
2022/10/20 14:28:18;;;;;;;9.55;7.93;;;;;;;;;;5041468;28;20438;-82
2022/10/20 14:30:46;;;;;;;11.30;8.37;;;;;;;;;;5042227;28;20430;-82
2022/10/20 14:33:14;;;;;;;10.52;7.97;;;;;;;;;;5037541;28;20563;-81
2022/10/20 14:35:42;;;;;;;15.80;7.20;;;;;;;;;;5038523;28;20459;-80
2022/10/20 14:38:15;;;;;;;9.48;6.97;;;;;;;;;;5041943;28;20940;-80
2022/10/20 14:40:48;;;;;;;9.57;7.10;;;;;;;;;;5036946;28;20440;-80
2022/10/20 14:43:16;;;;;;;11.53;7.10;;;;;;;;;;5042281;28;20433;-80
2022/10/20 14:45:51;;;;;;;10.82;7.30;;;;;;;;;;5039852;28;20932;-81
2022/10/20 14:48:19;;;;;;;11.20;7.70;;;;;;;;;;5026530;28;20509;-80
2022/10/20 14:50:45;;;;;;;11.50;8.10;;;;;;;;;;5037626;28;20427;-81
2022/10/20 14:53:30;;;;;;;9.93;7.13;;;;;;;;;;5030014;28;20511;-80